sensor_id;sensor_type;location;lat;lon;timestamp;P1;durP1;ratioP1;P2;durP2;ratioP2
17866;SDS011;9059;49.934;8.650;2023-03-01T00:00:34;9.73;;;4.00;;
17866;SDS011;9059;49.934;8.650;2023-03-01T00:01:36;16.93;;;4.80;;
17866;SDS011;9059;49.934;8.650;2023-03-01T00:02:38;13.97;;;4.97;;
17866;SDS011;9059;49.934;8.650;2023-03-01T00:03:41;9.37;;;4.20;;
17866;SDS011;9059;49.934;8.650;2023-03-01T00:04:43;9.57;;;4.27;;
17866;SDS011;9059;49.934;8.650;2023-03-01T00:05:46;11.37;;;4.60;;
17866;SDS011;9059;49.934;8.650;2023-03-01T00:06:48;11.07;;;4.53;;
17866;SDS011;9059;49.934;8.650;2023-03-01T00:07:52;10.17;;;4.53;;
17866;SDS011;9059;49.934;8.650;2023-03-01T00:08:54;8.70;;;4.43;;
17866;SDS011;9059;49.934;8.650;2023-03-01T00:09:57;10.13;;;4.50;;
17866;SDS011;9059;49.934;8.650;2023-03-01T00:11:02;9.53;;;4.30;;
17866;SDS011;9059;49.934;8.650;2023-03-01T00:12:06;8.23;;;3.93;;
17866;SDS011;9059;49.934;8.650;2023-03-01T00:13:08;9.10;;;3.90;;
17866;SDS011;9059;49.934;8.650;2023-03-01T00:14:11;13.30;;;4.80;;
17866;SDS011;9059;49.934;8.650;2023-03-01T00:15:13;9.63;;;4.47;;
17866;SDS011;9059;49.934;8.650;2023-03-01T00:16:21;11.83;;;4.67;;
17866;SDS011;9059;49.934;8.650;2023-03-01T00:17:23;13.17;;;4.60;;
17866;SDS011;9059;49.934;8.650;2023-03-01T00:18:26;11.53;;;4.80;;
17866;SDS011;9059;49.934;8.650;2023-03-01T00:19:28;10.93;;;4.77;;
17866;SDS011;9059;49.934;8.650;2023-03-01T00:20:30;8.87;;;4.27;;
17866;SDS011;9059;49.934;8.650;2023-03-01T00:21:32;9.07;;;4.07;;
17866;SDS011;9059;49.934;8.650;2023-03-01T00:22:36;10.63;;;4.83;;
17866;SDS011;9059;49.934;8.650;2023-03-01T00:23:38;10.53;;;4.53;;
17866;SDS011;9059;49.934;8.650;2023-03-01T00:24:41;11.90;;;4.60;;
17866;SDS011;9059;49.934;8.650;2023-03-01T00:25:43;10.70;;;4.10;;
17866;SDS011;9059;49.934;8.650;2023-03-01T00:26:45;10.40;;;4.73;;
17866;SDS011;9059;49.934;8.650;2023-03-01T00:27:47;9.30;;;4.00;;
17866;SDS011;9059;49.934;8.650;2023-03-01T00:28:51;11.83;;;4.60;;
17866;SDS011;9059;49.934;8.650;2023-03-01T00:29:53;7.97;;;4.03;;
17866;SDS011;9059;49.934;8.650;2023-03-01T00:30:56;8.80;;;4.47;;
17866;SDS011;9059;49.934;8.650;2023-03-01T00:31:59;10.60;;;4.00;;
17866;SDS011;9059;49.934;8.650;2023-03-01T00:33:01;10.50;;;4.57;;
17866;SDS011;9059;49.934;8.650;2023-03-01T00:34:04;9.13;;;4.43;;
17866;SDS011;9059;49.934;8.650;2023-03-01T00:35:07;11.03;;;4.77;;
17866;SDS011;9059;49.934;8.650;2023-03-01T00:36:09;10.40;;;3.57;;
17866;SDS011;9059;49.934;8.650;2023-03-01T00:37:13;8.97;;;4.17;;
17866;SDS011;9059;49.934;8.650;2023-03-01T00:38:14;18.30;;;4.20;;
17866;SDS011;9059;49.934;8.650;2023-03-01T00:39:17;10.10;;;4.33;;
17866;SDS011;9059;49.934;8.650;2023-03-01T00:40:19;17.10;;;4.43;;
17866;SDS011;9059;49.934;8.650;2023-03-01T00:41:22;9.27;;;4.43;;
17866;SDS011;9059;49.934;8.650;2023-03-01T00:42:23;13.07;;;4.50;;
17866;SDS011;9059;49.934;8.650;2023-03-01T00:43:26;15.07;;;4.03;;
17866;SDS011;9059;49.934;8.650;2023-03-01T00:44:28;11.60;;;4.50;;
17866;SDS011;9059;49.934;8.650;2023-03-01T00:45:31;11.03;;;4.33;;
17866;SDS011;9059;49.934;8.650;2023-03-01T00:46:34;8.53;;;4.27;;
17866;SDS011;9059;49.934;8.650;2023-03-01T00:47:38;9.90;;;4.20;;
17866;SDS011;9059;49.934;8.650;2023-03-01T00:48:40;8.33;;;4.27;;
17866;SDS011;9059;49.934;8.650;2023-03-01T00:49:43;10.50;;;4.40;;
17866;SDS011;9059;49.934;8.650;2023-03-01T00:50:45;10.40;;;5.00;;
17866;SDS011;9059;49.934;8.650;2023-03-01T00:51:47;10.23;;;4.57;;
17866;SDS011;9059;49.934;8.650;2023-03-01T00:52:51;10.63;;;3.87;;
17866;SDS011;9059;49.934;8.650;2023-03-01T00:53:55;10.87;;;4.90;;
17866;SDS011;9059;49.934;8.650;2023-03-01T00:54:57;11.87;;;4.47;;
17866;SDS011;9059;49.934;8.650;2023-03-01T00:56:00;15.50;;;4.70;;
17866;SDS011;9059;49.934;8.650;2023-03-01T00:57:02;8.53;;;4.00;;
17866;SDS011;9059;49.934;8.650;2023-03-01T00:58:05;9.93;;;4.40;;
17866;SDS011;9059;49.934;8.650;2023-03-01T00:59:07;8.00;;;4.20;;
17866;SDS011;9059;49.934;8.650;2023-03-01T01:00:10;9.67;;;3.97;;
17866;SDS011;9059;49.934;8.650;2023-03-01T01:01:13;14.57;;;4.40;;
17866;SDS011;9059;49.934;8.650;2023-03-01T01:02:19;7.47;;;4.00;;
17866;SDS011;9059;49.934;8.650;2023-03-01T01:03:22;10.50;;;4.60;;
17866;SDS011;9059;49.934;8.650;2023-03-01T01:04:26;9.23;;;4.20;;
17866;SDS011;9059;49.934;8.650;2023-03-01T01:05:27;11.77;;;4.97;;
17866;SDS011;9059;49.934;8.650;2023-03-01T01:06:31;8.97;;;3.87;;
17866;SDS011;9059;49.934;8.650;2023-03-01T01:07:34;10.77;;;4.50;;
17866;SDS011;9059;49.934;8.650;2023-03-01T01:08:37;11.10;;;4.50;;
17866;SDS011;9059;49.934;8.650;2023-03-01T01:09:39;11.87;;;4.23;;
17866;SDS011;9059;49.934;8.650;2023-03-01T01:10:43;7.87;;;3.70;;
17866;SDS011;9059;49.934;8.650;2023-03-01T01:11:45;10.07;;;4.77;;
17866;SDS011;9059;49.934;8.650;2023-03-01T01:12:48;12.87;;;4.67;;
17866;SDS011;9059;49.934;8.650;2023-03-01T01:13:49;9.23;;;4.00;;
17866;SDS011;9059;49.934;8.650;2023-03-01T01:14:53;14.03;;;4.63;;
17866;SDS011;9059;49.934;8.650;2023-03-01T01:15:54;12.53;;;5.17;;
17866;SDS011;9059;49.934;8.650;2023-03-01T01:17:03;10.47;;;4.20;;
17866;SDS011;9059;49.934;8.650;2023-03-01T01:18:05;12.70;;;4.57;;
17866;SDS011;9059;49.934;8.650;2023-03-01T01:19:09;12.53;;;3.77;;
17866;SDS011;9059;49.934;8.650;2023-03-01T01:20:12;8.50;;;4.27;;
17866;SDS011;9059;49.934;8.650;2023-03-01T01:21:15;12.07;;;4.50;;
17866;SDS011;9059;49.934;8.650;2023-03-01T01:22:19;8.63;;;3.90;;
17866;SDS011;9059;49.934;8.650;2023-03-01T01:23:22;12.67;;;4.70;;
17866;SDS011;9059;49.934;8.650;2023-03-01T01:24:23;12.97;;;4.30;;
17866;SDS011;9059;49.934;8.650;2023-03-01T01:25:26;8.63;;;4.27;;
17866;SDS011;9059;49.934;8.650;2023-03-01T01:26:28;9.80;;;4.00;;
17866;SDS011;9059;49.934;8.650;2023-03-01T01:27:33;10.27;;;4.23;;
17866;SDS011;9059;49.934;8.650;2023-03-01T01:28:35;10.50;;;4.67;;
17866;SDS011;9059;49.934;8.650;2023-03-01T01:29:38;10.77;;;3.90;;
17866;SDS011;9059;49.934;8.650;2023-03-01T01:30:40;13.63;;;4.83;;
17866;SDS011;9059;49.934;8.650;2023-03-01T01:31:42;9.80;;;4.27;;
17866;SDS011;9059;49.934;8.650;2023-03-01T01:32:44;8.43;;;4.43;;
17866;SDS011;9059;49.934;8.650;2023-03-01T01:33:48;9.27;;;4.30;;
17866;SDS011;9059;49.934;8.650;2023-03-01T01:34:51;9.87;;;4.13;;
17866;SDS011;9059;49.934;8.650;2023-03-01T01:35:53;7.83;;;3.80;;
17866;SDS011;9059;49.934;8.650;2023-03-01T01:36:55;10.63;;;4.33;;
17866;SDS011;9059;49.934;8.650;2023-03-01T01:37:58;10.23;;;4.33;;
17866;SDS011;9059;49.934;8.650;2023-03-01T01:39:00;11.93;;;4.83;;
17866;SDS011;9059;49.934;8.650;2023-03-01T01:40:03;12.63;;;4.47;;
17866;SDS011;9059;49.934;8.650;2023-03-01T01:41:06;11.23;;;5.13;;
17866;SDS011;9059;49.934;8.650;2023-03-01T01:42:11;9.83;;;4.43;;
17866;SDS011;9059;49.934;8.650;2023-03-01T01:43:16;9.80;;;5.03;;
17866;SDS011;9059;49.934;8.650;2023-03-01T01:44:22;12.33;;;4.40;;
17866;SDS011;9059;49.934;8.650;2023-03-01T01:45:26;15.80;;;4.73;;
17866;SDS011;9059;49.934;8.650;2023-03-01T01:46:33;10.33;;;4.43;;
17866;SDS011;9059;49.934;8.650;2023-03-01T01:47:37;9.80;;;4.43;;
17866;SDS011;9059;49.934;8.650;2023-03-01T01:48:41;10.90;;;4.93;;
17866;SDS011;9059;49.934;8.650;2023-03-01T01:49:46;9.07;;;3.67;;
17866;SDS011;9059;49.934;8.650;2023-03-01T01:50:54;11.03;;;5.07;;
17866;SDS011;9059;49.934;8.650;2023-03-01T01:52:06;9.07;;;4.47;;
17866;SDS011;9059;49.934;8.650;2023-03-01T01:53:12;8.90;;;4.30;;
17866;SDS011;9059;49.934;8.650;2023-03-01T01:54:17;9.77;;;4.30;;
17866;SDS011;9059;49.934;8.650;2023-03-01T01:55:22;12.17;;;4.80;;
17866;SDS011;9059;49.934;8.650;2023-03-01T01:56:26;12.27;;;4.13;;
17866;SDS011;9059;49.934;8.650;2023-03-01T01:57:31;12.43;;;4.87;;
17866;SDS011;9059;49.934;8.650;2023-03-01T01:58:35;8.93;;;4.40;;
17866;SDS011;9059;49.934;8.650;2023-03-01T01:59:38;10.37;;;4.17;;
17866;SDS011;9059;49.934;8.650;2023-03-01T02:00:40;10.33;;;4.40;;
17866;SDS011;9059;49.934;8.650;2023-03-01T02:01:43;9.73;;;4.90;;
17866;SDS011;9059;49.934;8.650;2023-03-01T02:02:45;11.43;;;4.40;;
17866;SDS011;9059;49.934;8.650;2023-03-01T02:03:50;9.00;;;4.20;;
17866;SDS011;9059;49.934;8.650;2023-03-01T02:04:53;11.57;;;4.67;;
17866;SDS011;9059;49.934;8.650;2023-03-01T02:06:03;7.93;;;4.17;;
17866;SDS011;9059;49.934;8.650;2023-03-01T02:07:07;11.10;;;4.43;;
17866;SDS011;9059;49.934;8.650;2023-03-01T02:08:14;11.17;;;4.63;;
17866;SDS011;9059;49.934;8.650;2023-03-01T02:09:18;10.43;;;3.97;;
17866;SDS011;9059;49.934;8.650;2023-03-01T02:10:23;17.83;;;4.97;;
17866;SDS011;9059;49.934;8.650;2023-03-01T02:11:24;10.23;;;4.33;;
17866;SDS011;9059;49.934;8.650;2023-03-01T02:12:28;8.47;;;4.83;;
17866;SDS011;9059;49.934;8.650;2023-03-01T02:13:30;10.23;;;4.60;;
17866;SDS011;9059;49.934;8.650;2023-03-01T02:14:33;11.27;;;4.47;;
17866;SDS011;9059;49.934;8.650;2023-03-01T02:15:35;9.63;;;4.60;;
17866;SDS011;9059;49.934;8.650;2023-03-01T02:16:39;11.93;;;4.97;;
17866;SDS011;9059;49.934;8.650;2023-03-01T02:17:41;10.57;;;4.60;;
17866;SDS011;9059;49.934;8.650;2023-03-01T02:18:43;11.23;;;4.70;;
17866;SDS011;9059;49.934;8.650;2023-03-01T02:19:50;10.07;;;4.30;;
17866;SDS011;9059;49.934;8.650;2023-03-01T02:21:08;10.60;;;4.60;;
17866;SDS011;9059;49.934;8.650;2023-03-01T02:22:18;13.17;;;4.80;;
17866;SDS011;9059;49.934;8.650;2023-03-01T02:23:22;13.10;;;4.83;;
17866;SDS011;9059;49.934;8.650;2023-03-01T02:24:28;11.27;;;4.40;;
17866;SDS011;9059;49.934;8.650;2023-03-01T02:25:37;10.13;;;4.53;;
17866;SDS011;9059;49.934;8.650;2023-03-01T02:26:45;13.90;;;5.00;;
17866;SDS011;9059;49.934;8.650;2023-03-01T02:27:51;9.57;;;4.20;;
17866;SDS011;9059;49.934;8.650;2023-03-01T02:28:59;12.13;;;4.70;;
17866;SDS011;9059;49.934;8.650;2023-03-01T02:30:01;10.77;;;4.77;;
17866;SDS011;9059;49.934;8.650;2023-03-01T02:31:04;8.63;;;4.03;;
17866;SDS011;9059;49.934;8.650;2023-03-01T02:32:26;10.63;;;4.10;;
17866;SDS011;9059;49.934;8.650;2023-03-01T02:33:28;10.43;;;4.17;;
17866;SDS011;9059;49.934;8.650;2023-03-01T02:34:34;10.77;;;5.10;;
17866;SDS011;9059;49.934;8.650;2023-03-01T02:35:37;10.87;;;5.23;;
17866;SDS011;9059;49.934;8.650;2023-03-01T02:36:40;9.53;;;4.70;;
17866;SDS011;9059;49.934;8.650;2023-03-01T02:37:45;13.20;;;4.90;;
17866;SDS011;9059;49.934;8.650;2023-03-01T02:38:47;12.23;;;4.87;;
17866;SDS011;9059;49.934;8.650;2023-03-01T02:39:51;11.67;;;5.20;;
17866;SDS011;9059;49.934;8.650;2023-03-01T02:41:00;15.40;;;4.87;;
17866;SDS011;9059;49.934;8.650;2023-03-01T02:42:02;11.17;;;4.63;;
17866;SDS011;9059;49.934;8.650;2023-03-01T02:43:06;15.13;;;5.17;;
17866;SDS011;9059;49.934;8.650;2023-03-01T02:44:11;14.17;;;5.40;;
17866;SDS011;9059;49.934;8.650;2023-03-01T02:45:13;13.20;;;4.63;;
17866;SDS011;9059;49.934;8.650;2023-03-01T02:46:16;13.10;;;5.17;;
17866;SDS011;9059;49.934;8.650;2023-03-01T02:47:20;12.83;;;5.17;;
17866;SDS011;9059;49.934;8.650;2023-03-01T02:48:21;10.33;;;5.27;;
17866;SDS011;9059;49.934;8.650;2023-03-01T02:49:25;11.83;;;4.70;;
17866;SDS011;9059;49.934;8.650;2023-03-01T02:50:39;10.93;;;4.67;;
17866;SDS011;9059;49.934;8.650;2023-03-01T02:51:52;13.13;;;4.90;;
17866;SDS011;9059;49.934;8.650;2023-03-01T02:53:00;13.97;;;4.80;;
17866;SDS011;9059;49.934;8.650;2023-03-01T02:54:07;10.57;;;4.77;;
17866;SDS011;9059;49.934;8.650;2023-03-01T02:55:12;13.80;;;4.80;;
17866;SDS011;9059;49.934;8.650;2023-03-01T02:56:16;9.77;;;4.87;;
17866;SDS011;9059;49.934;8.650;2023-03-01T02:57:18;9.43;;;4.30;;
17866;SDS011;9059;49.934;8.650;2023-03-01T02:58:23;11.07;;;4.70;;
17866;SDS011;9059;49.934;8.650;2023-03-01T02:59:26;10.53;;;5.17;;
17866;SDS011;9059;49.934;8.650;2023-03-01T03:00:33;10.67;;;5.20;;
17866;SDS011;9059;49.934;8.650;2023-03-01T03:01:40;12.47;;;5.07;;
17866;SDS011;9059;49.934;8.650;2023-03-01T03:02:43;13.87;;;5.00;;
17866;SDS011;9059;49.934;8.650;2023-03-01T03:03:45;12.37;;;4.83;;
17866;SDS011;9059;49.934;8.650;2023-03-01T03:04:48;14.33;;;5.17;;
17866;SDS011;9059;49.934;8.650;2023-03-01T03:05:50;10.43;;;4.90;;
17866;SDS011;9059;49.934;8.650;2023-03-01T03:06:52;10.53;;;4.70;;
17866;SDS011;9059;49.934;8.650;2023-03-01T03:07:54;9.97;;;5.27;;
17866;SDS011;9059;49.934;8.650;2023-03-01T03:08:57;12.23;;;4.70;;
17866;SDS011;9059;49.934;8.650;2023-03-01T03:09:59;9.27;;;4.30;;
17866;SDS011;9059;49.934;8.650;2023-03-01T03:11:02;12.23;;;4.97;;
17866;SDS011;9059;49.934;8.650;2023-03-01T03:12:04;8.90;;;3.73;;
17866;SDS011;9059;49.934;8.650;2023-03-01T03:13:08;10.53;;;4.87;;
17866;SDS011;9059;49.934;8.650;2023-03-01T03:14:12;13.03;;;5.27;;
17866;SDS011;9059;49.934;8.650;2023-03-01T03:15:17;13.27;;;5.37;;
17866;SDS011;9059;49.934;8.650;2023-03-01T03:16:19;14.53;;;4.77;;
17866;SDS011;9059;49.934;8.650;2023-03-01T03:17:22;10.77;;;4.97;;
17866;SDS011;9059;49.934;8.650;2023-03-01T03:18:24;10.50;;;5.10;;
17866;SDS011;9059;49.934;8.650;2023-03-01T03:19:28;11.47;;;4.43;;
17866;SDS011;9059;49.934;8.650;2023-03-01T03:20:30;11.53;;;4.70;;
17866;SDS011;9059;49.934;8.650;2023-03-01T03:21:33;10.63;;;4.80;;
17866;SDS011;9059;49.934;8.650;2023-03-01T03:22:35;13.50;;;4.70;;
17866;SDS011;9059;49.934;8.650;2023-03-01T03:23:37;10.70;;;5.00;;
17866;SDS011;9059;49.934;8.650;2023-03-01T03:24:39;12.57;;;4.90;;
17866;SDS011;9059;49.934;8.650;2023-03-01T03:25:42;12.20;;;4.73;;
17866;SDS011;9059;49.934;8.650;2023-03-01T03:26:44;10.80;;;4.90;;
17866;SDS011;9059;49.934;8.650;2023-03-01T03:27:47;13.73;;;5.20;;
17866;SDS011;9059;49.934;8.650;2023-03-01T03:28:49;8.63;;;3.93;;
17866;SDS011;9059;49.934;8.650;2023-03-01T03:29:52;12.60;;;4.83;;
17866;SDS011;9059;49.934;8.650;2023-03-01T03:30:55;10.03;;;4.70;;
17866;SDS011;9059;49.934;8.650;2023-03-01T03:31:59;11.90;;;5.03;;
17866;SDS011;9059;49.934;8.650;2023-03-01T03:33:01;10.00;;;4.77;;
17866;SDS011;9059;49.934;8.650;2023-03-01T03:34:04;13.33;;;5.10;;
17866;SDS011;9059;49.934;8.650;2023-03-01T03:35:06;11.07;;;5.30;;
17866;SDS011;9059;49.934;8.650;2023-03-01T03:36:14;14.73;;;5.53;;
17866;SDS011;9059;49.934;8.650;2023-03-01T03:37:18;11.63;;;4.73;;
17866;SDS011;9059;49.934;8.650;2023-03-01T03:38:35;11.77;;;4.67;;
17866;SDS011;9059;49.934;8.650;2023-03-01T03:39:38;9.97;;;4.80;;
17866;SDS011;9059;49.934;8.650;2023-03-01T03:40:40;12.13;;;4.90;;
17866;SDS011;9059;49.934;8.650;2023-03-01T03:41:43;10.17;;;4.83;;
17866;SDS011;9059;49.934;8.650;2023-03-01T03:42:45;11.17;;;5.03;;
17866;SDS011;9059;49.934;8.650;2023-03-01T03:43:48;10.83;;;4.27;;
17866;SDS011;9059;49.934;8.650;2023-03-01T03:44:50;13.83;;;5.27;;
17866;SDS011;9059;49.934;8.650;2023-03-01T03:45:52;9.07;;;4.67;;
17866;SDS011;9059;49.934;8.650;2023-03-01T03:46:56;16.57;;;5.07;;
17866;SDS011;9059;49.934;8.650;2023-03-01T03:47:59;12.17;;;4.70;;
17866;SDS011;9059;49.934;8.650;2023-03-01T03:49:01;11.13;;;4.90;;
17866;SDS011;9059;49.934;8.650;2023-03-01T03:50:04;10.73;;;4.87;;
17866;SDS011;9059;49.934;8.650;2023-03-01T03:51:06;13.53;;;5.20;;
17866;SDS011;9059;49.934;8.650;2023-03-01T03:52:12;14.43;;;5.33;;
17866;SDS011;9059;49.934;8.650;2023-03-01T03:53:14;12.57;;;5.40;;
17866;SDS011;9059;49.934;8.650;2023-03-01T03:54:17;11.60;;;4.90;;
17866;SDS011;9059;49.934;8.650;2023-03-01T03:55:19;11.77;;;5.00;;
17866;SDS011;9059;49.934;8.650;2023-03-01T03:56:22;14.13;;;5.50;;
17866;SDS011;9059;49.934;8.650;2023-03-01T03:57:29;11.83;;;4.90;;
17866;SDS011;9059;49.934;8.650;2023-03-01T03:58:30;13.97;;;4.90;;
17866;SDS011;9059;49.934;8.650;2023-03-01T03:59:33;11.73;;;5.43;;
17866;SDS011;9059;49.934;8.650;2023-03-01T04:00:35;12.07;;;4.87;;
17866;SDS011;9059;49.934;8.650;2023-03-01T04:01:39;20.67;;;5.57;;
17866;SDS011;9059;49.934;8.650;2023-03-01T04:02:44;10.83;;;4.87;;
17866;SDS011;9059;49.934;8.650;2023-03-01T04:03:46;11.57;;;4.97;;
17866;SDS011;9059;49.934;8.650;2023-03-01T04:04:49;13.97;;;5.00;;
17866;SDS011;9059;49.934;8.650;2023-03-01T04:05:51;9.97;;;4.53;;
17866;SDS011;9059;49.934;8.650;2023-03-01T04:06:54;11.70;;;5.03;;
17866;SDS011;9059;49.934;8.650;2023-03-01T04:07:55;10.47;;;4.77;;
17866;SDS011;9059;49.934;8.650;2023-03-01T04:09:03;13.93;;;4.70;;
17866;SDS011;9059;49.934;8.650;2023-03-01T04:10:07;10.57;;;4.73;;
17866;SDS011;9059;49.934;8.650;2023-03-01T04:11:10;12.47;;;4.97;;
17866;SDS011;9059;49.934;8.650;2023-03-01T04:12:28;10.00;;;4.67;;
17866;SDS011;9059;49.934;8.650;2023-03-01T04:13:30;10.77;;;5.20;;
17866;SDS011;9059;49.934;8.650;2023-03-01T04:14:33;12.77;;;4.93;;
17866;SDS011;9059;49.934;8.650;2023-03-01T04:15:35;15.87;;;5.00;;
17866;SDS011;9059;49.934;8.650;2023-03-01T04:16:37;11.00;;;5.17;;
17866;SDS011;9059;49.934;8.650;2023-03-01T04:17:39;12.03;;;5.30;;
17866;SDS011;9059;49.934;8.650;2023-03-01T04:18:44;12.83;;;4.97;;
17866;SDS011;9059;49.934;8.650;2023-03-01T04:19:46;12.07;;;5.23;;
17866;SDS011;9059;49.934;8.650;2023-03-01T04:20:50;16.70;;;5.07;;
17866;SDS011;9059;49.934;8.650;2023-03-01T04:21:53;11.27;;;4.60;;
17866;SDS011;9059;49.934;8.650;2023-03-01T04:22:57;12.43;;;5.00;;
17866;SDS011;9059;49.934;8.650;2023-03-01T04:24:11;12.10;;;4.77;;
17866;SDS011;9059;49.934;8.650;2023-03-01T04:25:14;14.03;;;5.37;;
17866;SDS011;9059;49.934;8.650;2023-03-01T04:26:16;13.20;;;5.30;;
17866;SDS011;9059;49.934;8.650;2023-03-01T04:27:19;15.47;;;6.13;;
17866;SDS011;9059;49.934;8.650;2023-03-01T04:28:21;10.37;;;5.00;;
17866;SDS011;9059;49.934;8.650;2023-03-01T04:29:25;14.50;;;5.80;;
17866;SDS011;9059;49.934;8.650;2023-03-01T04:30:27;17.73;;;5.70;;
17866;SDS011;9059;49.934;8.650;2023-03-01T04:31:30;13.80;;;5.23;;
17866;SDS011;9059;49.934;8.650;2023-03-01T04:32:31;11.87;;;5.30;;
17866;SDS011;9059;49.934;8.650;2023-03-01T04:33:34;10.83;;;4.80;;
17866;SDS011;9059;49.934;8.650;2023-03-01T04:34:38;14.03;;;5.40;;
17866;SDS011;9059;49.934;8.650;2023-03-01T04:35:40;17.63;;;5.37;;
17866;SDS011;9059;49.934;8.650;2023-03-01T04:36:42;11.93;;;5.00;;
17866;SDS011;9059;49.934;8.650;2023-03-01T04:37:45;10.73;;;5.13;;
17866;SDS011;9059;49.934;8.650;2023-03-01T04:38:47;12.00;;;5.63;;
17866;SDS011;9059;49.934;8.650;2023-03-01T04:39:50;13.50;;;5.73;;
17866;SDS011;9059;49.934;8.650;2023-03-01T04:40:52;13.13;;;6.10;;
17866;SDS011;9059;49.934;8.650;2023-03-01T04:41:55;10.23;;;5.17;;
17866;SDS011;9059;49.934;8.650;2023-03-01T04:42:56;14.83;;;6.17;;
17866;SDS011;9059;49.934;8.650;2023-03-01T04:43:59;12.50;;;5.17;;
17866;SDS011;9059;49.934;8.650;2023-03-01T04:45:01;12.87;;;5.40;;
17866;SDS011;9059;49.934;8.650;2023-03-01T04:46:04;13.50;;;5.53;;
17866;SDS011;9059;49.934;8.650;2023-03-01T04:47:10;17.47;;;6.03;;
17866;SDS011;9059;49.934;8.650;2023-03-01T04:48:12;13.67;;;5.13;;
17866;SDS011;9059;49.934;8.650;2023-03-01T04:49:15;13.60;;;4.77;;
17866;SDS011;9059;49.934;8.650;2023-03-01T04:50:19;12.23;;;5.20;;
17866;SDS011;9059;49.934;8.650;2023-03-01T04:51:22;12.77;;;5.60;;
17866;SDS011;9059;49.934;8.650;2023-03-01T04:52:25;13.20;;;5.77;;
17866;SDS011;9059;49.934;8.650;2023-03-01T04:53:27;13.93;;;6.13;;
17866;SDS011;9059;49.934;8.650;2023-03-01T04:54:31;12.83;;;5.70;;
17866;SDS011;9059;49.934;8.650;2023-03-01T04:55:33;11.40;;;5.57;;
17866;SDS011;9059;49.934;8.650;2023-03-01T04:56:36;14.30;;;5.10;;
17866;SDS011;9059;49.934;8.650;2023-03-01T04:57:37;12.17;;;5.50;;
17866;SDS011;9059;49.934;8.650;2023-03-01T04:58:40;11.00;;;5.47;;
17866;SDS011;9059;49.934;8.650;2023-03-01T04:59:44;13.53;;;5.53;;
17866;SDS011;9059;49.934;8.650;2023-03-01T05:00:45;14.60;;;5.13;;
17866;SDS011;9059;49.934;8.650;2023-03-01T05:01:48;12.20;;;5.57;;
17866;SDS011;9059;49.934;8.650;2023-03-01T05:02:51;13.80;;;5.27;;
17866;SDS011;9059;49.934;8.650;2023-03-01T05:03:58;12.47;;;5.00;;
17866;SDS011;9059;49.934;8.650;2023-03-01T05:05:04;19.43;;;5.83;;
17866;SDS011;9059;49.934;8.650;2023-03-01T05:06:09;11.97;;;5.70;;
17866;SDS011;9059;49.934;8.650;2023-03-01T05:07:12;14.13;;;5.57;;
17866;SDS011;9059;49.934;8.650;2023-03-01T05:08:14;16.60;;;5.83;;
17866;SDS011;9059;49.934;8.650;2023-03-01T05:09:19;14.20;;;5.30;;
17866;SDS011;9059;49.934;8.650;2023-03-01T05:10:21;12.63;;;5.57;;
17866;SDS011;9059;49.934;8.650;2023-03-01T05:11:25;13.93;;;5.17;;
17866;SDS011;9059;49.934;8.650;2023-03-01T05:12:27;22.70;;;5.57;;
17866;SDS011;9059;49.934;8.650;2023-03-01T05:13:29;12.70;;;5.77;;
17866;SDS011;9059;49.934;8.650;2023-03-01T05:14:31;13.80;;;5.47;;
17866;SDS011;9059;49.934;8.650;2023-03-01T05:15:34;12.10;;;5.63;;
17866;SDS011;9059;49.934;8.650;2023-03-01T05:16:37;12.73;;;5.37;;
17866;SDS011;9059;49.934;8.650;2023-03-01T05:17:40;12.60;;;4.93;;
17866;SDS011;9059;49.934;8.650;2023-03-01T05:18:42;12.00;;;5.10;;
17866;SDS011;9059;49.934;8.650;2023-03-01T05:19:45;13.27;;;5.90;;
17866;SDS011;9059;49.934;8.650;2023-03-01T05:20:47;14.63;;;5.90;;
17866;SDS011;9059;49.934;8.650;2023-03-01T05:21:51;12.30;;;5.80;;
17866;SDS011;9059;49.934;8.650;2023-03-01T05:23:05;11.73;;;5.60;;
17866;SDS011;9059;49.934;8.650;2023-03-01T05:24:08;14.70;;;5.43;;
17866;SDS011;9059;49.934;8.650;2023-03-01T05:25:12;11.70;;;5.47;;
17866;SDS011;9059;49.934;8.650;2023-03-01T05:26:16;12.63;;;5.17;;
17866;SDS011;9059;49.934;8.650;2023-03-01T05:27:29;14.37;;;5.47;;
17866;SDS011;9059;49.934;8.650;2023-03-01T05:28:32;13.80;;;6.00;;
17866;SDS011;9059;49.934;8.650;2023-03-01T05:29:34;29.67;;;5.77;;
17866;SDS011;9059;49.934;8.650;2023-03-01T05:30:37;14.17;;;5.70;;
17866;SDS011;9059;49.934;8.650;2023-03-01T05:31:40;10.97;;;5.00;;
17866;SDS011;9059;49.934;8.650;2023-03-01T05:32:43;15.70;;;5.30;;
17866;SDS011;9059;49.934;8.650;2023-03-01T05:33:46;14.80;;;5.73;;
17866;SDS011;9059;49.934;8.650;2023-03-01T05:34:49;11.60;;;5.07;;
17866;SDS011;9059;49.934;8.650;2023-03-01T05:35:51;11.53;;;5.33;;
17866;SDS011;9059;49.934;8.650;2023-03-01T05:36:56;12.73;;;5.73;;
17866;SDS011;9059;49.934;8.650;2023-03-01T05:37:58;14.10;;;5.70;;
17866;SDS011;9059;49.934;8.650;2023-03-01T05:39:01;11.70;;;5.57;;
17866;SDS011;9059;49.934;8.650;2023-03-01T05:40:03;14.57;;;6.03;;
17866;SDS011;9059;49.934;8.650;2023-03-01T05:41:13;12.23;;;5.60;;
17866;SDS011;9059;49.934;8.650;2023-03-01T05:42:15;14.33;;;5.33;;
17866;SDS011;9059;49.934;8.650;2023-03-01T05:43:18;13.10;;;5.20;;
17866;SDS011;9059;49.934;8.650;2023-03-01T05:44:19;13.97;;;6.20;;
17866;SDS011;9059;49.934;8.650;2023-03-01T05:45:22;12.90;;;5.23;;
17866;SDS011;9059;49.934;8.650;2023-03-01T05:46:25;13.63;;;5.73;;
17866;SDS011;9059;49.934;8.650;2023-03-01T05:47:28;16.77;;;5.00;;
17866;SDS011;9059;49.934;8.650;2023-03-01T05:48:29;11.73;;;5.00;;
17866;SDS011;9059;49.934;8.650;2023-03-01T05:49:33;14.47;;;5.93;;
17866;SDS011;9059;49.934;8.650;2023-03-01T05:50:36;12.87;;;5.70;;
17866;SDS011;9059;49.934;8.650;2023-03-01T05:51:40;14.43;;;5.50;;
17866;SDS011;9059;49.934;8.650;2023-03-01T05:52:44;11.23;;;5.33;;
17866;SDS011;9059;49.934;8.650;2023-03-01T05:53:47;13.23;;;5.90;;
17866;SDS011;9059;49.934;8.650;2023-03-01T05:54:50;10.53;;;5.47;;
17866;SDS011;9059;49.934;8.650;2023-03-01T05:55:52;12.90;;;4.90;;
17866;SDS011;9059;49.934;8.650;2023-03-01T05:56:54;12.83;;;5.00;;
17866;SDS011;9059;49.934;8.650;2023-03-01T05:57:58;18.03;;;5.80;;
17866;SDS011;9059;49.934;8.650;2023-03-01T05:59:01;15.30;;;5.53;;
17866;SDS011;9059;49.934;8.650;2023-03-01T06:00:03;12.13;;;5.80;;
17866;SDS011;9059;49.934;8.650;2023-03-01T06:01:10;15.67;;;6.07;;
17866;SDS011;9059;49.934;8.650;2023-03-01T06:02:13;13.57;;;5.87;;
17866;SDS011;9059;49.934;8.650;2023-03-01T06:03:16;15.60;;;5.80;;
17866;SDS011;9059;49.934;8.650;2023-03-01T06:04:18;14.97;;;5.80;;
17866;SDS011;9059;49.934;8.650;2023-03-01T06:05:22;11.63;;;5.33;;
17866;SDS011;9059;49.934;8.650;2023-03-01T06:06:24;15.97;;;6.07;;
17866;SDS011;9059;49.934;8.650;2023-03-01T06:07:29;12.10;;;5.57;;
17866;SDS011;9059;49.934;8.650;2023-03-01T06:08:32;12.67;;;5.33;;
17866;SDS011;9059;49.934;8.650;2023-03-01T06:09:35;13.27;;;5.63;;
17866;SDS011;9059;49.934;8.650;2023-03-01T06:10:37;15.30;;;6.23;;
17866;SDS011;9059;49.934;8.650;2023-03-01T06:11:39;10.87;;;5.20;;
17866;SDS011;9059;49.934;8.650;2023-03-01T06:12:41;12.00;;;5.70;;
17866;SDS011;9059;49.934;8.650;2023-03-01T06:13:45;11.37;;;5.23;;
17866;SDS011;9059;49.934;8.650;2023-03-01T06:14:47;14.37;;;5.47;;
17866;SDS011;9059;49.934;8.650;2023-03-01T06:15:49;17.00;;;5.70;;
17866;SDS011;9059;49.934;8.650;2023-03-01T06:16:53;11.07;;;5.20;;
17866;SDS011;9059;49.934;8.650;2023-03-01T06:17:55;15.37;;;5.23;;
17866;SDS011;9059;49.934;8.650;2023-03-01T06:19:00;11.10;;;5.43;;
17866;SDS011;9059;49.934;8.650;2023-03-01T06:20:02;15.00;;;5.40;;
17866;SDS011;9059;49.934;8.650;2023-03-01T06:21:05;14.40;;;5.30;;
17866;SDS011;9059;49.934;8.650;2023-03-01T06:22:08;10.50;;;5.07;;
17866;SDS011;9059;49.934;8.650;2023-03-01T06:23:10;12.93;;;5.67;;
17866;SDS011;9059;49.934;8.650;2023-03-01T06:24:14;13.07;;;5.47;;